sensor_id;sensor_type;location;lat;lon;timestamp;temperature;humidity
11894;DHT22;6006;49.696;8.662;2023-12-07T00:02:20;1.20;99.90
11894;DHT22;6006;49.696;8.662;2023-12-07T00:04:47;1.20;99.90
11894;DHT22;6006;49.696;8.662;2023-12-07T00:07:15;1.20;99.90
11894;DHT22;6006;49.696;8.662;2023-12-07T00:09:42;1.20;99.90
11894;DHT22;6006;49.696;8.662;2023-12-07T00:12:09;1.10;99.90
11894;DHT22;6006;49.696;8.662;2023-12-07T00:14:36;1.10;99.90
11894;DHT22;6006;49.696;8.662;2023-12-07T00:17:03;1.10;99.90
11894;DHT22;6006;49.696;8.662;2023-12-07T00:19:30;1.20;99.90
11894;DHT22;6006;49.696;8.662;2023-12-07T00:21:56;1.20;99.90
11894;DHT22;6006;49.696;8.662;2023-12-07T00:24:24;1.20;99.90
11894;DHT22;6006;49.696;8.662;2023-12-07T00:26:51;1.20;99.90
11894;DHT22;6006;49.696;8.662;2023-12-07T00:29:18;1.30;99.90
11894;DHT22;6006;49.696;8.662;2023-12-07T00:31:45;1.30;99.90
11894;DHT22;6006;49.696;8.662;2023-12-07T00:34:12;1.30;99.90
11894;DHT22;6006;49.696;8.662;2023-12-07T00:36:38;1.30;99.90
11894;DHT22;6006;49.696;8.662;2023-12-07T00:39:06;1.40;99.90
11894;DHT22;6006;49.696;8.662;2023-12-07T00:41:35;1.40;99.90
11894;DHT22;6006;49.696;8.662;2023-12-07T00:44:02;1.40;99.90
11894;DHT22;6006;49.696;8.662;2023-12-07T00:46:29;1.40;99.90
11894;DHT22;6006;49.696;8.662;2023-12-07T00:48:56;1.40;99.90
11894;DHT22;6006;49.696;8.662;2023-12-07T00:51:23;1.40;99.90
11894;DHT22;6006;49.696;8.662;2023-12-07T00:53:50;1.40;99.90
11894;DHT22;6006;49.696;8.662;2023-12-07T00:56:17;1.40;99.90
11894;DHT22;6006;49.696;8.662;2023-12-07T00:58:45;1.40;99.90
11894;DHT22;6006;49.696;8.662;2023-12-07T01:01:12;1.40;99.90
11894;DHT22;6006;49.696;8.662;2023-12-07T01:03:39;1.30;99.90
11894;DHT22;6006;49.696;8.662;2023-12-07T01:06:06;1.30;99.90
11894;DHT22;6006;49.696;8.662;2023-12-07T01:08:35;1.20;99.90
11894;DHT22;6006;49.696;8.662;2023-12-07T01:11:02;1.20;99.90
11894;DHT22;6006;49.696;8.662;2023-12-07T01:13:29;1.10;99.90
11894;DHT22;6006;49.696;8.662;2023-12-07T01:15:58;0.90;99.90
11894;DHT22;6006;49.696;8.662;2023-12-07T01:18:24;0.80;99.90
11894;DHT22;6006;49.696;8.662;2023-12-07T01:20:51;0.80;99.90
11894;DHT22;6006;49.696;8.662;2023-12-07T01:23:18;0.70;99.90
11894;DHT22;6006;49.696;8.662;2023-12-07T01:25:45;0.60;99.90
11894;DHT22;6006;49.696;8.662;2023-12-07T01:28:12;0.50;99.90
11894;DHT22;6006;49.696;8.662;2023-12-07T01:30:39;0.50;99.90
11894;DHT22;6006;49.696;8.662;2023-12-07T01:33:07;0.40;99.90
11894;DHT22;6006;49.696;8.662;2023-12-07T01:35:34;0.40;99.90
11894;DHT22;6006;49.696;8.662;2023-12-07T01:38:01;0.30;99.90
11894;DHT22;6006;49.696;8.662;2023-12-07T01:40:28;0.30;99.90
11894;DHT22;6006;49.696;8.662;2023-12-07T01:42:54;0.20;99.90
11894;DHT22;6006;49.696;8.662;2023-12-07T01:45:21;0.20;99.90
11894;DHT22;6006;49.696;8.662;2023-12-07T01:47:50;0.10;99.90
11894;DHT22;6006;49.696;8.662;2023-12-07T01:50:20;0.00;99.90
11894;DHT22;6006;49.696;8.662;2023-12-07T01:52:52;0.00;99.90
11894;DHT22;6006;49.696;8.662;2023-12-07T01:55:22;0.00;99.90
11894;DHT22;6006;49.696;8.662;2023-12-07T01:57:50;0.00;99.90
11894;DHT22;6006;49.696;8.662;2023-12-07T02:00:17;0.00;99.90
11894;DHT22;6006;49.696;8.662;2023-12-07T02:02:44;0.00;99.90
11894;DHT22;6006;49.696;8.662;2023-12-07T02:05:13;0.00;99.90
11894;DHT22;6006;49.696;8.662;2023-12-07T02:07:42;0.00;99.90
11894;DHT22;6006;49.696;8.662;2023-12-07T02:10:10;0.00;99.90
11894;DHT22;6006;49.696;8.662;2023-12-07T02:12:39;0.00;99.90
11894;DHT22;6006;49.696;8.662;2023-12-07T02:15:06;0.00;99.90
11894;DHT22;6006;49.696;8.662;2023-12-07T02:17:45;-0.10;99.90
11894;DHT22;6006;49.696;8.662;2023-12-07T02:20:21;-0.10;99.90
11894;DHT22;6006;49.696;8.662;2023-12-07T02:22:55;-0.10;99.90
11894;DHT22;6006;49.696;8.662;2023-12-07T02:25:26;-0.10;99.90
11894;DHT22;6006;49.696;8.662;2023-12-07T02:27:54;-0.10;99.90
11894;DHT22;6006;49.696;8.662;2023-12-07T02:30:21;-0.10;99.90
11894;DHT22;6006;49.696;8.662;2023-12-07T02:32:48;-0.10;99.90
11894;DHT22;6006;49.696;8.662;2023-12-07T02:35:15;-0.10;99.90
11894;DHT22;6006;49.696;8.662;2023-12-07T02:37:44;-0.10;99.90
11894;DHT22;6006;49.696;8.662;2023-12-07T02:40:12;-0.10;99.90
11894;DHT22;6006;49.696;8.662;2023-12-07T02:42:41;-0.20;99.90
11894;DHT22;6006;49.696;8.662;2023-12-07T02:45:11;-0.20;99.90
11894;DHT22;6006;49.696;8.662;2023-12-07T02:47:38;-0.20;99.90
11894;DHT22;6006;49.696;8.662;2023-12-07T02:50:07;-0.20;99.90
11894;DHT22;6006;49.696;8.662;2023-12-07T02:52:35;-0.30;99.90
11894;DHT22;6006;49.696;8.662;2023-12-07T02:55:02;-0.40;99.90
11894;DHT22;6006;49.696;8.662;2023-12-07T02:57:29;-0.40;99.90
11894;DHT22;6006;49.696;8.662;2023-12-07T02:59:56;-0.40;99.90
11894;DHT22;6006;49.696;8.662;2023-12-07T03:02:24;-0.40;99.90
11894;DHT22;6006;49.696;8.662;2023-12-07T03:04:51;-0.40;99.90
11894;DHT22;6006;49.696;8.662;2023-12-07T03:07:18;-0.40;99.90
11894;DHT22;6006;49.696;8.662;2023-12-07T03:09:45;-0.40;99.90
11894;DHT22;6006;49.696;8.662;2023-12-07T03:12:12;-0.40;99.90
11894;DHT22;6006;49.696;8.662;2023-12-07T03:14:39;-0.40;99.90
11894;DHT22;6006;49.696;8.662;2023-12-07T03:17:06;-0.50;99.90
11894;DHT22;6006;49.696;8.662;2023-12-07T03:19:37;-0.50;99.90
11894;DHT22;6006;49.696;8.662;2023-12-07T03:22:04;-0.60;99.90
11894;DHT22;6006;49.696;8.662;2023-12-07T03:24:32;-0.60;99.90
11894;DHT22;6006;49.696;8.662;2023-12-07T03:26:59;-0.70;99.90
11894;DHT22;6006;49.696;8.662;2023-12-07T03:29:26;-0.80;99.90
11894;DHT22;6006;49.696;8.662;2023-12-07T03:31:53;-0.80;99.90
11894;DHT22;6006;49.696;8.662;2023-12-07T03:34:19;-0.80;99.90
11894;DHT22;6006;49.696;8.662;2023-12-07T03:36:48;-0.80;99.90
11894;DHT22;6006;49.696;8.662;2023-12-07T03:39:16;-0.90;99.90
11894;DHT22;6006;49.696;8.662;2023-12-07T03:41:44;-0.90;99.90
11894;DHT22;6006;49.696;8.662;2023-12-07T03:44:11;-0.80;99.90
11894;DHT22;6006;49.696;8.662;2023-12-07T03:46:38;-0.80;99.90
11894;DHT22;6006;49.696;8.662;2023-12-07T03:49:05;-0.70;99.90
11894;DHT22;6006;49.696;8.662;2023-12-07T03:51:32;-0.70;99.90
11894;DHT22;6006;49.696;8.662;2023-12-07T03:54:03;-0.60;99.90
11894;DHT22;6006;49.696;8.662;2023-12-07T03:56:32;-0.60;99.90
11894;DHT22;6006;49.696;8.662;2023-12-07T03:58:59;-0.50;99.90
11894;DHT22;6006;49.696;8.662;2023-12-07T04:01:27;-0.40;99.90
11894;DHT22;6006;49.696;8.662;2023-12-07T04:03:56;-0.40;99.90
11894;DHT22;6006;49.696;8.662;2023-12-07T04:06:23;-0.30;99.90
11894;DHT22;6006;49.696;8.662;2023-12-07T04:08:51;-0.30;99.90
11894;DHT22;6006;49.696;8.662;2023-12-07T04:11:20;-0.30;99.90
11894;DHT22;6006;49.696;8.662;2023-12-07T04:13:48;-0.20;99.90
11894;DHT22;6006;49.696;8.662;2023-12-07T04:16:15;-0.20;99.90
11894;DHT22;6006;49.696;8.662;2023-12-07T04:18:42;-0.20;99.90
11894;DHT22;6006;49.696;8.662;2023-12-07T04:21:09;-0.10;99.90
11894;DHT22;6006;49.696;8.662;2023-12-07T04:23:35;-0.10;99.90
11894;DHT22;6006;49.696;8.662;2023-12-07T04:26:02;-0.10;99.90
11894;DHT22;6006;49.696;8.662;2023-12-07T04:28:31;-0.10;99.90
11894;DHT22;6006;49.696;8.662;2023-12-07T04:30:58;-0.10;99.90
11894;DHT22;6006;49.696;8.662;2023-12-07T04:33:25;-0.10;99.90
11894;DHT22;6006;49.696;8.662;2023-12-07T04:35:52;-0.10;99.90
11894;DHT22;6006;49.696;8.662;2023-12-07T04:38:18;-0.10;99.90
11894;DHT22;6006;49.696;8.662;2023-12-07T04:40:45;-0.10;99.90
11894;DHT22;6006;49.696;8.662;2023-12-07T04:43:12;-0.10;99.90
11894;DHT22;6006;49.696;8.662;2023-12-07T04:45:41;-0.10;99.90
11894;DHT22;6006;49.696;8.662;2023-12-07T04:48:08;-0.10;99.90
11894;DHT22;6006;49.696;8.662;2023-12-07T04:50:35;-0.20;99.90
11894;DHT22;6006;49.696;8.662;2023-12-07T04:53:01;-0.20;99.90
11894;DHT22;6006;49.696;8.662;2023-12-07T04:55:29;-0.20;99.90
11894;DHT22;6006;49.696;8.662;2023-12-07T04:57:55;-0.20;99.90
11894;DHT22;6006;49.696;8.662;2023-12-07T05:00:22;-0.20;99.90
11894;DHT22;6006;49.696;8.662;2023-12-07T05:02:51;-0.20;99.90
11894;DHT22;6006;49.696;8.662;2023-12-07T05:05:18;-0.10;99.90
11894;DHT22;6006;49.696;8.662;2023-12-07T05:07:45;-0.10;99.90
11894;DHT22;6006;49.696;8.662;2023-12-07T05:10:11;-0.10;99.90
11894;DHT22;6006;49.696;8.662;2023-12-07T05:12:39;0.00;99.90
11894;DHT22;6006;49.696;8.662;2023-12-07T05:15:06;0.00;99.90
11894;DHT22;6006;49.696;8.662;2023-12-07T05:17:34;0.10;99.90
11894;DHT22;6006;49.696;8.662;2023-12-07T05:20:02;0.10;99.90
11894;DHT22;6006;49.696;8.662;2023-12-07T05:22:31;0.20;99.90
11894;DHT22;6006;49.696;8.662;2023-12-07T05:24:58;0.30;99.90
11894;DHT22;6006;49.696;8.662;2023-12-07T05:27:25;0.30;99.90
11894;DHT22;6006;49.696;8.662;2023-12-07T05:29:52;0.40;99.90
11894;DHT22;6006;49.696;8.662;2023-12-07T05:32:19;0.40;99.90
11894;DHT22;6006;49.696;8.662;2023-12-07T05:34:46;0.40;99.90
11894;DHT22;6006;49.696;8.662;2023-12-07T05:37:14;0.50;99.90
11894;DHT22;6006;49.696;8.662;2023-12-07T05:39:41;0.50;99.90
11894;DHT22;6006;49.696;8.662;2023-12-07T05:42:08;0.50;99.90
11894;DHT22;6006;49.696;8.662;2023-12-07T05:44:35;0.50;99.90
11894;DHT22;6006;49.696;8.662;2023-12-07T05:47:02;0.50;99.90
11894;DHT22;6006;49.696;8.662;2023-12-07T05:49:29;0.50;99.90
11894;DHT22;6006;49.696;8.662;2023-12-07T05:51:56;0.50;99.90
11894;DHT22;6006;49.696;8.662;2023-12-07T05:54:24;0.50;99.90
11894;DHT22;6006;49.696;8.662;2023-12-07T05:56:51;0.50;99.90
11894;DHT22;6006;49.696;8.662;2023-12-07T05:59:18;0.50;99.90
11894;DHT22;6006;49.696;8.662;2023-12-07T06:01:45;0.60;99.90
11894;DHT22;6006;49.696;8.662;2023-12-07T06:04:12;0.60;99.90
11894;DHT22;6006;49.696;8.662;2023-12-07T06:06:39;0.60;99.90
11894;DHT22;6006;49.696;8.662;2023-12-07T06:09:06;0.60;99.90
11894;DHT22;6006;49.696;8.662;2023-12-07T06:11:34;0.70;99.90
11894;DHT22;6006;49.696;8.662;2023-12-07T06:14:02;0.70;99.90
11894;DHT22;6006;49.696;8.662;2023-12-07T06:16:31;0.70;99.90
11894;DHT22;6006;49.696;8.662;2023-12-07T06:18:58;0.70;99.90
11894;DHT22;6006;49.696;8.662;2023-12-07T06:21:25;0.80;99.90
11894;DHT22;6006;49.696;8.662;2023-12-07T06:23:55;0.80;99.90
11894;DHT22;6006;49.696;8.662;2023-12-07T06:26:22;0.80;99.90
11894;DHT22;6006;49.696;8.662;2023-12-07T06:28:50;0.80;99.90
11894;DHT22;6006;49.696;8.662;2023-12-07T06:31:17;0.80;99.90
11894;DHT22;6006;49.696;8.662;2023-12-07T06:33:46;0.80;99.90
11894;DHT22;6006;49.696;8.662;2023-12-07T06:36:18;0.80;99.90
11894;DHT22;6006;49.696;8.662;2023-12-07T06:38:46;0.80;99.90
11894;DHT22;6006;49.696;8.662;2023-12-07T06:41:13;0.80;99.90
11894;DHT22;6006;49.696;8.662;2023-12-07T06:43:40;0.70;99.90
11894;DHT22;6006;49.696;8.662;2023-12-07T06:46:08;0.70;99.90
11894;DHT22;6006;49.696;8.662;2023-12-07T06:48:35;0.70;99.90
11894;DHT22;6006;49.696;8.662;2023-12-07T06:51:03;0.70;99.90
11894;DHT22;6006;49.696;8.662;2023-12-07T06:53:30;0.60;99.90
11894;DHT22;6006;49.696;8.662;2023-12-07T06:55:58;0.50;99.90
11894;DHT22;6006;49.696;8.662;2023-12-07T06:58:25;0.50;99.90
11894;DHT22;6006;49.696;8.662;2023-12-07T07:00:52;0.50;99.90
11894;DHT22;6006;49.696;8.662;2023-12-07T07:03:20;0.50;99.90
11894;DHT22;6006;49.696;8.662;2023-12-07T07:05:47;0.50;99.90
11894;DHT22;6006;49.696;8.662;2023-12-07T07:08:14;0.50;99.90
11894;DHT22;6006;49.696;8.662;2023-12-07T07:10:41;0.50;99.90
11894;DHT22;6006;49.696;8.662;2023-12-07T07:13:08;0.50;99.90
11894;DHT22;6006;49.696;8.662;2023-12-07T07:15:35;0.50;99.90
11894;DHT22;6006;49.696;8.662;2023-12-07T07:18:02;0.60;99.90
11894;DHT22;6006;49.696;8.662;2023-12-07T07:20:30;0.60;99.90
11894;DHT22;6006;49.696;8.662;2023-12-07T07:22:57;0.60;99.90
11894;DHT22;6006;49.696;8.662;2023-12-07T07:25:24;0.60;99.90
11894;DHT22;6006;49.696;8.662;2023-12-07T07:27:51;0.60;99.90
11894;DHT22;6006;49.696;8.662;2023-12-07T07:30:20;0.60;99.90
11894;DHT22;6006;49.696;8.662;2023-12-07T07:32:47;0.60;99.90
11894;DHT22;6006;49.696;8.662;2023-12-07T07:35:14;0.60;99.90
11894;DHT22;6006;49.696;8.662;2023-12-07T07:37:43;0.60;99.90
11894;DHT22;6006;49.696;8.662;2023-12-07T07:40:11;0.60;99.90
11894;DHT22;6006;49.696;8.662;2023-12-07T07:42:38;0.60;99.90
11894;DHT22;6006;49.696;8.662;2023-12-07T07:45:06;0.60;99.90
11894;DHT22;6006;49.696;8.662;2023-12-07T07:47:33;0.60;99.90
11894;DHT22;6006;49.696;8.662;2023-12-07T07:50:00;0.60;99.90
11894;DHT22;6006;49.696;8.662;2023-12-07T07:52:31;0.70;99.90
11894;DHT22;6006;49.696;8.662;2023-12-07T07:55:00;0.80;99.90
11894;DHT22;6006;49.696;8.662;2023-12-07T07:57:27;0.80;99.90
11894;DHT22;6006;49.696;8.662;2023-12-07T07:59:53;0.90;99.90
11894;DHT22;6006;49.696;8.662;2023-12-07T08:02:20;0.90;99.90
11894;DHT22;6006;49.696;8.662;2023-12-07T08:04:47;0.90;99.90
11894;DHT22;6006;49.696;8.662;2023-12-07T08:07:14;0.90;99.90
11894;DHT22;6006;49.696;8.662;2023-12-07T08:09:41;0.90;99.90
11894;DHT22;6006;49.696;8.662;2023-12-07T08:12:09;0.80;99.90
11894;DHT22;6006;49.696;8.662;2023-12-07T08:14:36;0.70;99.90
11894;DHT22;6006;49.696;8.662;2023-12-07T08:17:03;0.60;99.90
11894;DHT22;6006;49.696;8.662;2023-12-07T08:19:31;0.60;99.90
11894;DHT22;6006;49.696;8.662;2023-12-07T08:21:58;0.60;99.90
11894;DHT22;6006;49.696;8.662;2023-12-07T08:24:25;0.60;99.90
11894;DHT22;6006;49.696;8.662;2023-12-07T08:26:52;0.60;99.90
11894;DHT22;6006;49.696;8.662;2023-12-07T08:29:22;0.50;99.90
11894;DHT22;6006;49.696;8.662;2023-12-07T08:31:49;0.50;99.90
11894;DHT22;6006;49.696;8.662;2023-12-07T08:34:17;0.50;99.90
11894;DHT22;6006;49.696;8.662;2023-12-07T08:36:43;0.50;99.90
11894;DHT22;6006;49.696;8.662;2023-12-07T08:39:10;0.50;99.90
11894;DHT22;6006;49.696;8.662;2023-12-07T08:41:37;0.60;99.90
11894;DHT22;6006;49.696;8.662;2023-12-07T08:44:04;0.70;99.90
11894;DHT22;6006;49.696;8.662;2023-12-07T08:46:33;0.80;99.90
11894;DHT22;6006;49.696;8.662;2023-12-07T08:49:00;0.80;99.90
11894;DHT22;6006;49.696;8.662;2023-12-07T08:51:28;0.80;99.90
11894;DHT22;6006;49.696;8.662;2023-12-07T08:53:56;0.80;99.90
11894;DHT22;6006;49.696;8.662;2023-12-07T08:56:22;0.70;99.90
11894;DHT22;6006;49.696;8.662;2023-12-07T08:58:49;0.70;99.90
11894;DHT22;6006;49.696;8.662;2023-12-07T09:01:17;0.70;99.90
11894;DHT22;6006;49.696;8.662;2023-12-07T09:03:45;0.70;99.90
11894;DHT22;6006;49.696;8.662;2023-12-07T09:06:12;0.70;99.90
11894;DHT22;6006;49.696;8.662;2023-12-07T09:08:39;0.70;99.90
11894;DHT22;6006;49.696;8.662;2023-12-07T09:11:06;0.70;99.90
11894;DHT22;6006;49.696;8.662;2023-12-07T09:13:33;0.70;99.90
11894;DHT22;6006;49.696;8.662;2023-12-07T09:16:00;0.70;99.90
11894;DHT22;6006;49.696;8.662;2023-12-07T09:18:26;0.70;99.90
11894;DHT22;6006;49.696;8.662;2023-12-07T09:20:55;0.80;99.90
11894;DHT22;6006;49.696;8.662;2023-12-07T09:23:22;0.80;99.90
11894;DHT22;6006;49.696;8.662;2023-12-07T09:25:48;0.90;99.90
11894;DHT22;6006;49.696;8.662;2023-12-07T09:28:17;1.00;99.90
11894;DHT22;6006;49.696;8.662;2023-12-07T09:30:43;1.00;99.90
11894;DHT22;6006;49.696;8.662;2023-12-07T09:33:10;1.10;99.90
11894;DHT22;6006;49.696;8.662;2023-12-07T09:35:39;1.10;99.90
11894;DHT22;6006;49.696;8.662;2023-12-07T09:38:07;1.10;99.90
11894;DHT22;6006;49.696;8.662;2023-12-07T09:40:35;1.10;99.90
11894;DHT22;6006;49.696;8.662;2023-12-07T09:43:02;1.20;99.90
11894;DHT22;6006;49.696;8.662;2023-12-07T09:45:29;1.10;99.90
11894;DHT22;6006;49.696;8.662;2023-12-07T09:47:56;1.20;99.90
11894;DHT22;6006;49.696;8.662;2023-12-07T09:50:25;1.20;99.90
11894;DHT22;6006;49.696;8.662;2023-12-07T09:52:54;1.30;99.90
11894;DHT22;6006;49.696;8.662;2023-12-07T09:55:24;1.30;99.90
11894;DHT22;6006;49.696;8.662;2023-12-07T09:57:51;1.30;99.90
11894;DHT22;6006;49.696;8.662;2023-12-07T10:00:20;1.40;99.90
11894;DHT22;6006;49.696;8.662;2023-12-07T10:02:47;1.60;99.90
11894;DHT22;6006;49.696;8.662;2023-12-07T10:05:15;1.60;99.90
11894;DHT22;6006;49.696;8.662;2023-12-07T10:07:49;1.60;99.90
11894;DHT22;6006;49.696;8.662;2023-12-07T10:10:18;1.40;99.90
11894;DHT22;6006;49.696;8.662;2023-12-07T10:12:47;1.30;99.90
11894;DHT22;6006;49.696;8.662;2023-12-07T10:15:14;1.40;99.90
11894;DHT22;6006;49.696;8.662;2023-12-07T10:17:45;1.30;99.90
11894;DHT22;6006;49.696;8.662;2023-12-07T10:20:14;1.40;99.90
11894;DHT22;6006;49.696;8.662;2023-12-07T10:22:41;1.30;99.90
11894;DHT22;6006;49.696;8.662;2023-12-07T10:25:09;1.40;99.90
11894;DHT22;6006;49.696;8.662;2023-12-07T10:27:38;1.40;99.90
11894;DHT22;6006;49.696;8.662;2023-12-07T10:30:09;1.20;99.90
11894;DHT22;6006;49.696;8.662;2023-12-07T10:32:37;1.30;99.90
11894;DHT22;6006;49.696;8.662;2023-12-07T10:35:06;1.20;99.90
11894;DHT22;6006;49.696;8.662;2023-12-07T10:37:34;1.10;99.90
11894;DHT22;6006;49.696;8.662;2023-12-07T10:40:02;1.20;99.90
11894;DHT22;6006;49.696;8.662;2023-12-07T10:42:33;1.20;99.90
11894;DHT22;6006;49.696;8.662;2023-12-07T10:45:04;1.10;99.90
11894;DHT22;6006;49.696;8.662;2023-12-07T10:47:36;1.10;99.90
11894;DHT22;6006;49.696;8.662;2023-12-07T10:50:06;1.20;99.90
11894;DHT22;6006;49.696;8.662;2023-12-07T10:52:37;1.30;99.90
11894;DHT22;6006;49.696;8.662;2023-12-07T10:55:07;1.40;99.90
11894;DHT22;6006;49.696;8.662;2023-12-07T10:57:37;1.30;99.90
11894;DHT22;6006;49.696;8.662;2023-12-07T11:00:07;1.40;99.90
11894;DHT22;6006;49.696;8.662;2023-12-07T11:02:36;1.50;99.90
11894;DHT22;6006;49.696;8.662;2023-12-07T11:05:06;1.60;99.90
11894;DHT22;6006;49.696;8.662;2023-12-07T11:07:43;1.70;99.90
11894;DHT22;6006;49.696;8.662;2023-12-07T11:10:20;1.70;99.90
11894;DHT22;6006;49.696;8.662;2023-12-07T11:12:56;1.80;99.90
11894;DHT22;6006;49.696;8.662;2023-12-07T11:15:24;1.80;99.90
11894;DHT22;6006;49.696;8.662;2023-12-07T11:17:55;1.90;99.90
11894;DHT22;6006;49.696;8.662;2023-12-07T11:20:31;1.90;99.90
11894;DHT22;6006;49.696;8.662;2023-12-07T11:22:59;1.90;99.90
11894;DHT22;6006;49.696;8.662;2023-12-07T11:25:26;1.90;99.90
11894;DHT22;6006;49.696;8.662;2023-12-07T11:28:00;1.90;99.90
11894;DHT22;6006;49.696;8.662;2023-12-07T11:30:27;1.70;99.90
11894;DHT22;6006;49.696;8.662;2023-12-07T11:32:56;1.50;99.90
11894;DHT22;6006;49.696;8.662;2023-12-07T11:35:23;1.70;99.90
11894;DHT22;6006;49.696;8.662;2023-12-07T11:38:07;1.90;99.90
11894;DHT22;6006;49.696;8.662;2023-12-07T11:40:41;1.90;99.90
11894;DHT22;6006;49.696;8.662;2023-12-07T11:43:16;2.00;99.90
11894;DHT22;6006;49.696;8.662;2023-12-07T11:45:47;2.30;99.90
11894;DHT22;6006;49.696;8.662;2023-12-07T11:48:16;2.40;99.90
11894;DHT22;6006;49.696;8.662;2023-12-07T11:50:59;2.50;99.90
11894;DHT22;6006;49.696;8.662;2023-12-07T11:53:27;2.50;99.90
11894;DHT22;6006;49.696;8.662;2023-12-07T11:55:56;2.60;99.90
11894;DHT22;6006;49.696;8.662;2023-12-07T11:58:24;2.70;99.90
11894;DHT22;6006;49.696;8.662;2023-12-07T12:00:52;2.50;99.90
11894;DHT22;6006;49.696;8.662;2023-12-07T12:03:20;2.40;99.90
11894;DHT22;6006;49.696;8.662;2023-12-07T12:05:47;2.40;99.90
11894;DHT22;6006;49.696;8.662;2023-12-07T12:08:15;2.30;99.90
11894;DHT22;6006;49.696;8.662;2023-12-07T12:10:43;2.20;99.90
11894;DHT22;6006;49.696;8.662;2023-12-07T12:13:10;2.20;99.90
11894;DHT22;6006;49.696;8.662;2023-12-07T12:15:37;2.20;99.90
11894;DHT22;6006;49.696;8.662;2023-12-07T12:18:04;2.30;99.90
11894;DHT22;6006;49.696;8.662;2023-12-07T12:20:34;2.30;99.90
11894;DHT22;6006;49.696;8.662;2023-12-07T12:23:01;2.30;99.90
11894;DHT22;6006;49.696;8.662;2023-12-07T12:25:30;2.40;99.90
11894;DHT22;6006;49.696;8.662;2023-12-07T12:28:04;2.50;99.90
11894;DHT22;6006;49.696;8.662;2023-12-07T12:30:31;2.70;99.90
11894;DHT22;6006;49.696;8.662;2023-12-07T12:32:59;2.90;99.90
11894;DHT22;6006;49.696;8.662;2023-12-07T12:35:26;3.20;99.90
11894;DHT22;6006;49.696;8.662;2023-12-07T12:37:55;3.30;99.90
11894;DHT22;6006;49.696;8.662;2023-12-07T12:40:23;3.50;99.90
11894;DHT22;6006;49.696;8.662;2023-12-07T12:42:51;3.80;99.90
11894;DHT22;6006;49.696;8.662;2023-12-07T12:45:19;4.00;99.90
11894;DHT22;6006;49.696;8.662;2023-12-07T12:47:47;3.90;99.90
11894;DHT22;6006;49.696;8.662;2023-12-07T12:50:33;4.00;99.90
11894;DHT22;6006;49.696;8.662;2023-12-07T12:53:03;3.60;99.90
11894;DHT22;6006;49.696;8.662;2023-12-07T12:55:31;3.30;99.90
11894;DHT22;6006;49.696;8.662;2023-12-07T12:57:58;3.30;99.90
11894;DHT22;6006;49.696;8.662;2023-12-07T13:00:26;3.20;99.90
11894;DHT22;6006;49.696;8.662;2023-12-07T13:02:54;3.00;99.90
11894;DHT22;6006;49.696;8.662;2023-12-07T13:05:22;2.90;99.90
11894;DHT22;6006;49.696;8.662;2023-12-07T13:07:49;2.90;99.90
11894;DHT22;6006;49.696;8.662;2023-12-07T13:10:17;2.70;99.90
11894;DHT22;6006;49.696;8.662;2023-12-07T13:12:44;2.60;99.90
11894;DHT22;6006;49.696;8.662;2023-12-07T13:15:12;2.70;99.90
11894;DHT22;6006;49.696;8.662;2023-12-07T13:17:42;2.80;99.90
11894;DHT22;6006;49.696;8.662;2023-12-07T13:20:10;2.90;99.90
11894;DHT22;6006;49.696;8.662;2023-12-07T13:22:39;2.70;99.90
11894;DHT22;6006;49.696;8.662;2023-12-07T13:25:06;2.60;99.90
11894;DHT22;6006;49.696;8.662;2023-12-07T13:27:35;2.50;99.90
11894;DHT22;6006;49.696;8.662;2023-12-07T13:30:03;2.60;99.90
11894;DHT22;6006;49.696;8.662;2023-12-07T13:32:32;2.40;99.90
11894;DHT22;6006;49.696;8.662;2023-12-07T13:34:59;2.20;99.90
11894;DHT22;6006;49.696;8.662;2023-12-07T13:37:26;2.20;99.90
11894;DHT22;6006;49.696;8.662;2023-12-07T13:39:53;2.20;99.90
11894;DHT22;6006;49.696;8.662;2023-12-07T13:42:24;2.20;99.90
11894;DHT22;6006;49.696;8.662;2023-12-07T13:44:54;2.10;99.90
11894;DHT22;6006;49.696;8.662;2023-12-07T13:47:23;2.00;99.90
11894;DHT22;6006;49.696;8.662;2023-12-07T13:49:54;2.00;99.90
11894;DHT22;6006;49.696;8.662;2023-12-07T13:52:22;1.90;99.90
11894;DHT22;6006;49.696;8.662;2023-12-07T13:54:49;2.00;99.90
11894;DHT22;6006;49.696;8.662;2023-12-07T13:57:15;2.00;99.90
11894;DHT22;6006;49.696;8.662;2023-12-07T13:59:42;2.10;99.90
11894;DHT22;6006;49.696;8.662;2023-12-07T14:02:11;2.00;99.90
11894;DHT22;6006;49.696;8.662;2023-12-07T14:04:38;1.90;99.90
11894;DHT22;6006;49.696;8.662;2023-12-07T14:07:09;1.90;99.90
11894;DHT22;6006;49.696;8.662;2023-12-07T14:09:36;1.90;99.90
11894;DHT22;6006;49.696;8.662;2023-12-07T14:12:04;1.80;99.90
11894;DHT22;6006;49.696;8.662;2023-12-07T14:14:31;1.80;99.90
11894;DHT22;6006;49.696;8.662;2023-12-07T14:16:57;1.80;99.90
11894;DHT22;6006;49.696;8.662;2023-12-07T14:19:25;1.80;99.90
11894;DHT22;6006;49.696;8.662;2023-12-07T14:21:53;1.80;99.90
11894;DHT22;6006;49.696;8.662;2023-12-07T14:24:20;1.80;99.90
11894;DHT22;6006;49.696;8.662;2023-12-07T14:26:47;1.90;99.90
11894;DHT22;6006;49.696;8.662;2023-12-07T14:29:15;2.00;99.90
11894;DHT22;6006;49.696;8.662;2023-12-07T14:31:43;1.80;99.90
11894;DHT22;6006;49.696;8.662;2023-12-07T14:34:11;1.70;99.90
11894;DHT22;6006;49.696;8.662;2023-12-07T14:36:40;1.80;99.90
11894;DHT22;6006;49.696;8.662;2023-12-07T14:39:10;1.90;99.90
11894;DHT22;6006;49.696;8.662;2023-12-07T14:41:43;2.00;99.90
11894;DHT22;6006;49.696;8.662;2023-12-07T14:44:10;2.10;99.90
11894;DHT22;6006;49.696;8.662;2023-12-07T14:46:37;2.10;99.90
11894;DHT22;6006;49.696;8.662;2023-12-07T14:49:04;2.00;99.90
11894;DHT22;6006;49.696;8.662;2023-12-07T14:51:31;2.00;99.90
11894;DHT22;6006;49.696;8.662;2023-12-07T14:53:59;2.10;99.90
11894;DHT22;6006;49.696;8.662;2023-12-07T14:56:26;2.00;99.90
11894;DHT22;6006;49.696;8.662;2023-12-07T14:58:53;2.00;99.90
11894;DHT22;6006;49.696;8.662;2023-12-07T15:01:19;2.10;99.90
11894;DHT22;6006;49.696;8.662;2023-12-07T15:03:46;1.90;99.90
11894;DHT22;6006;49.696;8.662;2023-12-07T15:06:13;1.80;99.90
11894;DHT22;6006;49.696;8.662;2023-12-07T15:08:40;1.80;99.90
11894;DHT22;6006;49.696;8.662;2023-12-07T15:11:08;1.80;99.90
11894;DHT22;6006;49.696;8.662;2023-12-07T15:13:35;1.80;99.90
11894;DHT22;6006;49.696;8.662;2023-12-07T15:16:03;1.80;99.90
11894;DHT22;6006;49.696;8.662;2023-12-07T15:18:30;1.70;99.90
11894;DHT22;6006;49.696;8.662;2023-12-07T15:21:00;1.70;99.90
11894;DHT22;6006;49.696;8.662;2023-12-07T15:23:27;1.60;99.90
11894;DHT22;6006;49.696;8.662;2023-12-07T15:25:54;1.50;99.90
11894;DHT22;6006;49.696;8.662;2023-12-07T15:28:22;1.50;99.90
11894;DHT22;6006;49.696;8.662;2023-12-07T15:30:49;1.40;99.90
11894;DHT22;6006;49.696;8.662;2023-12-07T15:33:17;1.30;99.90
11894;DHT22;6006;49.696;8.662;2023-12-07T15:35:44;1.20;99.90
11894;DHT22;6006;49.696;8.662;2023-12-07T15:38:11;1.10;99.90
11894;DHT22;6006;49.696;8.662;2023-12-07T15:40:38;1.00;99.90
11894;DHT22;6006;49.696;8.662;2023-12-07T15:43:05;0.80;99.90
11894;DHT22;6006;49.696;8.662;2023-12-07T15:45:33;0.70;99.90
11894;DHT22;6006;49.696;8.662;2023-12-07T15:48:00;0.70;99.90
11894;DHT22;6006;49.696;8.662;2023-12-07T15:50:27;0.70;99.90
11894;DHT22;6006;49.696;8.662;2023-12-07T15:52:54;0.80;99.90
11894;DHT22;6006;49.696;8.662;2023-12-07T15:55:21;0.90;99.90
11894;DHT22;6006;49.696;8.662;2023-12-07T15:57:48;1.00;99.90
11894;DHT22;6006;49.696;8.662;2023-12-07T16:00:15;0.90;99.90
11894;DHT22;6006;49.696;8.662;2023-12-07T16:02:43;1.00;99.90
11894;DHT22;6006;49.696;8.662;2023-12-07T16:05:10;1.00;99.90